createdAt,value
2019-04-01T00:01:09.479Z,79.40
2019-04-01T00:03:12.350Z,79.00
2019-04-01T00:05:15.281Z,79.70
2019-04-01T00:07:18.167Z,80.20
2019-04-01T00:09:21.066Z,79.60
2019-04-01T00:11:23.902Z,79.10
2019-04-01T00:13:26.708Z,79.60
2019-04-01T00:15:29.605Z,80.10
2019-04-01T00:17:32.518Z,79.50
2019-04-01T00:19:35.299Z,81.30
2019-04-01T00:21:38.181Z,79.30
2019-04-01T00:23:41.006Z,80.40
2019-04-01T00:25:43.874Z,81.00
2019-04-01T00:27:46.663Z,80.80
2019-04-01T00:29:49.489Z,80.90
2019-04-01T00:31:52.299Z,80.50
2019-04-01T00:33:55.086Z,81.00
2019-04-01T00:35:57.902Z,81.20
2019-04-01T00:38:00.689Z,82.10
2019-04-01T00:40:04.794Z,81.30
2019-04-01T00:42:18.193Z,82.50
2019-04-01T00:44:21.021Z,82.00
2019-04-01T00:46:24.077Z,82.20
2019-04-01T00:48:26.891Z,82.10
2019-04-01T00:50:29.687Z,81.80
2019-04-01T00:52:32.574Z,81.50
2019-04-01T00:54:35.368Z,83.00
2019-04-01T00:56:38.253Z,81.90
2019-04-01T00:58:41.056Z,82.10
2019-04-01T01:00:43.838Z,83.10
2019-04-01T01:02:46.649Z,81.70
2019-04-01T01:04:49.446Z,82.80
2019-04-01T01:06:52.238Z,81.80
2019-04-01T01:08:55.081Z,81.70
2019-04-01T01:10:57.877Z,81.90
2019-04-01T01:13:00.684Z,81.60
2019-04-01T01:15:04.767Z,82.80
2019-04-01T01:17:07.579Z,84.30
2019-04-01T01:19:10.433Z,83.00
2019-04-01T01:21:13.306Z,80.90
2019-04-01T01:23:16.097Z,81.30
2019-04-01T01:25:18.893Z,83.40
2019-04-01T01:27:21.755Z,81.80
2019-04-01T01:29:24.570Z,81.90
2019-04-01T01:31:27.349Z,81.70
2019-04-01T01:33:30.153Z,82.70
2019-04-01T01:35:34.032Z,82.10
2019-04-01T01:37:36.854Z,82.20
2019-04-01T01:39:39.639Z,81.80
2019-04-01T01:41:42.426Z,82.20
2019-04-01T01:43:45.222Z,81.90
2019-04-01T01:45:48.051Z,83.10
2019-04-01T01:47:50.853Z,83.60
2019-04-01T01:49:53.642Z,82.70
2019-04-01T01:51:56.438Z,82.80
2019-04-01T01:53:59.245Z,83.10
2019-04-01T01:56:02.069Z,83.30
2019-04-01T01:58:04.926Z,83.40
2019-04-01T02:00:07.934Z,84.50
2019-04-01T02:02:10.714Z,83.70
2019-04-01T02:04:13.517Z,83.30
2019-04-01T02:06:16.356Z,83.30
2019-04-01T02:08:19.153Z,83.90
2019-04-01T02:10:21.970Z,83.90
2019-04-01T02:12:24.758Z,83.70
2019-04-01T02:14:27.560Z,83.10
2019-04-01T02:16:30.392Z,83.50
2019-04-01T02:18:33.262Z,84.60
2019-04-01T02:20:36.059Z,85.30
2019-04-01T02:22:38.877Z,86.30
2019-04-01T02:24:41.681Z,85.40
2019-04-01T02:26:44.486Z,85.80
2019-04-01T02:28:47.289Z,85.00
2019-04-01T02:30:50.088Z,86.30
2019-04-01T02:32:52.924Z,86.60
2019-04-01T02:34:55.742Z,86.20
2019-04-01T02:36:58.651Z,87.30
2019-04-01T02:39:01.437Z,87.10
2019-04-01T02:41:04.258Z,88.00
2019-04-01T02:43:07.046Z,88.50
2019-04-01T02:45:09.915Z,89.10
2019-04-01T02:47:12.734Z,89.00
2019-04-01T02:49:15.530Z,88.60
2019-04-01T02:51:18.507Z,88.90
2019-04-01T02:53:21.293Z,89.60
2019-04-01T02:55:24.087Z,88.00
2019-04-01T02:57:26.909Z,89.30
2019-04-01T02:59:29.698Z,89.30
2019-04-01T03:01:32.521Z,89.80
2019-04-01T03:03:35.352Z,89.50
2019-04-01T03:05:38.140Z,90.10
2019-04-01T03:07:40.962Z,90.50
2019-04-01T03:09:43.829Z,90.00
2019-04-01T03:11:46.634Z,90.10
2019-04-01T03:13:49.445Z,89.90
2019-04-01T03:15:52.255Z,90.10
2019-04-01T03:17:55.069Z,90.10
2019-04-01T03:19:57.858Z,90.10
2019-04-01T03:22:00.688Z,90.40
2019-04-01T03:24:03.591Z,90.80
2019-04-01T03:26:06.359Z,90.40
2019-04-01T03:28:09.182Z,90.80
2019-04-01T03:30:12.128Z,91.20
2019-04-01T03:32:15.017Z,91.20
2019-04-01T03:34:17.799Z,91.20
2019-04-01T03:36:20.630Z,91.00
2019-04-01T03:38:27.544Z,91.50
2019-04-01T03:40:27.906Z,91.30
2019-04-01T03:42:30.739Z,91.40
2019-04-01T03:44:33.609Z,91.80
2019-04-01T03:46:36.444Z,91.30
2019-04-01T03:48:39.246Z,91.40
2019-04-01T03:50:42.048Z,91.60
2019-04-01T03:52:44.843Z,91.50
2019-04-01T03:54:47.643Z,91.80
2019-04-01T03:56:50.445Z,91.80
2019-04-01T03:58:53.321Z,91.90
2019-04-01T04:00:56.122Z,91.70
2019-04-01T04:02:58.915Z,92.10
2019-04-01T04:05:01.738Z,91.90
2019-04-01T04:07:04.515Z,91.70
2019-04-01T04:09:07.351Z,91.90
2019-04-01T04:11:10.149Z,91.90
2019-04-01T04:13:12.951Z,92.20
2019-04-01T04:15:15.751Z,92.20
2019-04-01T04:17:18.579Z,92.40
2019-04-01T04:19:21.372Z,92.10
2019-04-01T04:21:24.589Z,92.70
2019-04-01T04:23:27.454Z,92.70
2019-04-01T04:25:30.269Z,92.70
2019-04-01T04:27:33.060Z,92.90
2019-04-01T04:29:35.873Z,92.80
2019-04-01T04:31:38.830Z,93.00
2019-04-01T04:33:41.636Z,92.70
2019-04-01T04:35:44.429Z,92.90
2019-04-01T04:37:47.265Z,93.10
2019-04-01T04:39:50.045Z,92.90
2019-04-01T04:41:52.867Z,93.50
2019-04-01T04:43:55.703Z,93.30
2019-04-01T04:45:58.582Z,93.00
2019-04-01T04:48:01.380Z,93.20
2019-04-01T04:50:04.793Z,93.20
2019-04-01T04:52:07.561Z,93.30
2019-04-01T04:54:10.415Z,93.40
2019-04-01T04:56:13.290Z,93.30
2019-04-01T04:58:16.146Z,93.20
2019-04-01T05:00:18.938Z,93.40
2019-04-01T05:02:24.458Z,93.60
2019-04-01T05:04:26.268Z,93.80
2019-04-01T05:06:29.058Z,93.70
2019-04-01T05:08:31.878Z,93.80
2019-04-01T05:10:34.705Z,93.80
2019-04-01T05:12:37.509Z,93.80
2019-04-01T05:14:40.304Z,93.90
2019-04-01T05:16:43.123Z,94.10
2019-04-01T05:18:45.901Z,93.70
2019-04-01T05:20:48.814Z,94.00
2019-04-01T05:22:51.869Z,93.90
2019-04-01T05:24:56.102Z,93.90
2019-04-01T05:26:59.630Z,93.90
2019-04-01T05:29:02.529Z,94.10
2019-04-01T05:31:06.610Z,93.90
2019-04-01T05:33:11.109Z,93.80
2019-04-01T05:35:13.979Z,93.80
2019-04-01T05:37:16.946Z,93.70
2019-04-01T05:39:20.124Z,93.90
2019-04-01T05:41:23.015Z,93.60
2019-04-01T05:43:25.817Z,93.60
2019-04-01T05:45:28.693Z,93.70
2019-04-01T05:47:35.979Z,93.80
2019-04-01T05:49:38.942Z,93.70
2019-04-01T05:51:41.995Z,93.80
2019-04-01T05:53:45.727Z,93.70
2019-04-01T05:55:48.787Z,93.70
2019-04-01T05:57:51.768Z,93.70
2019-04-01T05:59:54.632Z,93.40
2019-04-01T06:01:57.648Z,93.30
2019-04-01T06:04:00.533Z,93.20
2019-04-01T06:06:04.003Z,93.30
2019-04-01T06:08:06.863Z,93.00
2019-04-01T06:10:09.841Z,93.10
2019-04-01T06:12:12.649Z,93.00
2019-04-01T06:14:15.469Z,92.90
2019-04-01T06:16:18.347Z,92.60
2019-04-01T06:18:21.209Z,92.60
2019-04-01T06:20:24.093Z,92.50
2019-04-01T06:22:27.079Z,92.70
2019-04-01T06:24:29.953Z,92.60
2019-04-01T06:26:32.856Z,92.20
2019-04-01T06:28:35.740Z,92.50
2019-04-01T06:30:38.524Z,92.40
2019-04-01T06:32:41.398Z,92.50
2019-04-01T06:34:52.692Z,92.40
2019-04-01T06:36:48.795Z,92.40
2019-04-01T06:38:51.802Z,91.90
2019-04-01T06:40:54.657Z,92.10
2019-04-01T06:42:57.518Z,92.10
2019-04-01T06:45:00.628Z,91.80
2019-04-01T06:47:03.557Z,91.70
2019-04-01T06:49:06.364Z,91.60
2019-04-01T06:51:09.241Z,91.60
2019-04-01T06:53:12.035Z,91.50
2019-04-01T06:55:14.820Z,91.00
2019-04-01T06:57:17.704Z,90.90
2019-04-01T06:59:20.567Z,91.20
2019-04-01T07:01:23.422Z,91.50
2019-04-01T07:03:26.321Z,91.30
2019-04-01T07:05:29.122Z,91.00
2019-04-01T07:07:32.029Z,90.90
2019-04-01T07:09:34.885Z,90.40
2019-04-01T07:11:37.828Z,90.60
2019-04-01T07:13:40.700Z,89.80
2019-04-01T07:15:43.485Z,89.90
2019-04-01T07:17:46.332Z,90.20
2019-04-01T07:19:49.139Z,89.90
2019-04-01T07:21:54.458Z,89.60
2019-04-01T07:23:56.396Z,88.40
2019-04-01T07:25:59.336Z,89.00
2019-04-01T07:28:02.202Z,90.20
2019-04-01T07:30:05.919Z,89.50
2019-04-01T07:32:08.793Z,88.20
2019-04-01T07:34:11.629Z,88.20
2019-04-01T07:36:14.520Z,87.10
2019-04-01T07:38:17.341Z,88.10
2019-04-01T07:40:20.140Z,86.40
2019-04-01T07:42:23.001Z,86.80
2019-04-01T07:44:25.826Z,86.20
2019-04-01T07:46:28.630Z,84.00
2019-04-01T07:48:31.414Z,86.20
2019-04-01T07:50:34.295Z,84.10
2019-04-01T07:52:37.193Z,84.30
2019-04-01T07:54:41.611Z,84.20
2019-04-01T07:56:44.414Z,84.50
2019-04-01T07:58:47.729Z,85.10
2019-04-01T08:00:50.531Z,84.00
2019-04-01T08:02:53.317Z,81.90
2019-04-01T08:04:56.194Z,79.80
2019-04-01T08:06:59.157Z,80.40
2019-04-01T08:09:01.978Z,80.20
2019-04-01T08:11:04.778Z,76.00
2019-04-01T08:13:07.652Z,76.90
2019-04-01T08:15:10.614Z,75.30
2019-04-01T08:17:13.435Z,75.40
2019-04-01T08:19:16.303Z,74.70
2019-04-01T08:21:19.165Z,75.10
2019-04-01T08:23:22.068Z,73.80
2019-04-01T08:25:24.860Z,73.60
2019-04-01T08:27:27.723Z,73.30
2019-04-01T08:29:30.921Z,71.40
2019-04-01T08:31:33.849Z,71.60
2019-04-01T08:33:36.724Z,73.10
2019-04-01T08:35:39.786Z,70.00
2019-04-01T08:37:42.584Z,69.20
2019-04-01T08:39:45.405Z,66.80
2019-04-01T08:41:48.277Z,67.20
2019-04-01T08:43:51.152Z,65.40
2019-04-01T08:45:54.037Z,65.90
2019-04-01T08:47:56.894Z,66.60
2019-04-01T08:49:59.723Z,64.50
2019-04-01T08:52:02.610Z,66.10
2019-04-01T08:54:05.687Z,63.70
2019-04-01T08:56:08.559Z,62.90
2019-04-01T08:58:11.526Z,61.50
2019-04-01T09:00:14.482Z,61.80
2019-04-01T09:02:18.509Z,67.40
2019-04-01T09:04:21.592Z,63.00
2019-04-01T09:06:24.468Z,63.30
2019-04-01T09:08:27.845Z,62.80
2019-04-01T09:10:30.675Z,62.10
2019-04-01T09:12:33.557Z,61.20
2019-04-01T09:14:36.821Z,62.80
2019-04-01T09:16:40.044Z,62.10
2019-04-01T09:18:42.836Z,62.90
2019-04-01T09:20:45.630Z,63.40
2019-04-01T09:22:48.534Z,63.30
2019-04-01T09:24:51.314Z,59.70
2019-04-01T09:26:54.093Z,60.00
2019-04-01T09:28:56.990Z,60.70
2019-04-01T09:30:59.782Z,57.30
2019-04-01T09:33:02.674Z,56.60
2019-04-01T09:35:06.549Z,56.40
2019-04-01T09:37:11.068Z,55.60
2019-04-01T09:39:13.956Z,57.40
2019-04-01T09:41:16.762Z,55.60
2019-04-01T09:43:19.594Z,53.90
2019-04-01T09:45:22.390Z,54.40
2019-04-01T09:47:25.176Z,55.10
2019-04-01T09:49:28.086Z,55.80
2019-04-01T09:51:30.911Z,56.00
2019-04-01T09:53:33.702Z,56.50
2019-04-01T09:55:36.501Z,54.70
2019-04-01T09:57:39.317Z,55.70
2019-04-01T09:59:42.141Z,54.10
2019-04-01T10:01:44.922Z,53.80
2019-04-01T10:03:47.757Z,53.10
2019-04-01T10:05:50.564Z,53.20
2019-04-01T10:07:53.354Z,52.10
2019-04-01T10:09:57.081Z,53.20
2019-04-01T10:11:59.874Z,54.70
2019-04-01T10:14:02.982Z,55.00
2019-04-01T10:16:05.840Z,53.40
2019-04-01T10:18:08.638Z,52.80
2019-04-01T10:20:11.739Z,54.80
2019-04-01T10:22:14.783Z,55.00
2019-04-01T10:24:17.589Z,56.70
2019-04-01T10:26:20.419Z,54.80
2019-04-01T10:28:23.317Z,55.20
2019-04-01T10:30:26.418Z,55.00
2019-04-01T10:32:29.222Z,52.80
2019-04-01T10:34:34.091Z,53.50
2019-04-01T10:36:36.558Z,51.80
2019-04-01T10:38:39.357Z,53.60
2019-04-01T10:40:42.198Z,53.20
2019-04-01T10:42:44.998Z,54.30
2019-04-01T10:44:48.059Z,53.70
2019-04-01T10:46:51.011Z,53.20
2019-04-01T10:48:53.881Z,54.20
2019-04-01T10:50:56.735Z,54.30
2019-04-01T10:52:59.680Z,54.10
2019-04-01T10:55:02.799Z,53.00
2019-04-01T10:57:05.805Z,51.80
2019-04-01T10:59:08.636Z,50.70
2019-04-01T11:01:11.415Z,52.00
2019-04-01T11:03:14.406Z,50.10
2019-04-01T11:05:17.272Z,49.00
2019-04-01T11:07:20.177Z,51.10
2019-04-01T11:09:37.349Z,50.50
2019-04-01T11:11:27.618Z,51.20
2019-04-01T11:13:30.634Z,46.90
2019-04-01T11:15:33.435Z,46.30
2019-04-01T11:17:36.325Z,47.00
2019-04-01T11:19:39.610Z,45.80
2019-04-01T11:21:42.672Z,46.80
2019-04-01T11:23:45.622Z,45.60
2019-04-01T11:25:48.346Z,45.10
2019-04-01T11:27:51.140Z,45.50
2019-04-01T11:29:53.984Z,45.20
2019-04-01T11:31:56.802Z,45.80
2019-04-01T11:33:59.687Z,45.00
2019-04-01T11:36:02.587Z,44.20
2019-04-01T11:38:05.526Z,43.30
2019-04-01T11:40:11.398Z,43.80
2019-04-01T11:42:13.057Z,43.70
2019-04-01T11:44:15.856Z,44.00
2019-04-01T11:46:18.663Z,45.10
2019-04-01T11:48:21.457Z,45.60
2019-04-01T11:50:25.133Z,46.50
2019-04-01T11:52:28.340Z,46.30
2019-04-01T11:54:31.169Z,44.10
2019-04-01T11:56:34.039Z,44.70
2019-04-01T11:58:36.946Z,44.30
2019-04-01T12:00:40.587Z,44.90
2019-04-01T12:02:43.466Z,44.40
2019-04-01T12:04:46.315Z,45.40
2019-04-01T12:06:49.169Z,44.90
2019-04-01T12:08:51.968Z,44.10
2019-04-01T12:10:54.822Z,44.30
2019-04-01T12:12:57.629Z,43.30
2019-04-01T12:15:00.428Z,43.90
2019-04-01T12:17:03.253Z,42.60
2019-04-01T12:19:06.084Z,44.30
2019-04-01T12:21:08.869Z,42.50
2019-04-01T12:23:11.712Z,43.10
2019-04-01T12:25:14.581Z,43.20
2019-04-01T12:27:17.377Z,44.10
2019-04-01T12:29:20.204Z,43.60
2019-04-01T12:31:23.066Z,41.20
2019-04-01T12:33:26.403Z,41.70
2019-04-01T12:35:29.437Z,41.20
2019-04-01T12:37:32.303Z,41.60
2019-04-01T12:39:35.122Z,41.30
2019-04-01T12:41:38.022Z,41.40
2019-04-01T12:43:40.858Z,39.80
2019-04-01T12:45:43.690Z,40.00
2019-04-01T12:47:46.514Z,41.20
2019-04-01T12:49:49.307Z,40.70
2019-04-01T12:51:52.150Z,39.70
2019-04-01T12:53:55.015Z,42.40
2019-04-01T12:55:57.813Z,40.00
2019-04-01T12:58:00.617Z,38.80
2019-04-01T13:00:04.962Z,39.30
2019-04-01T13:02:07.865Z,41.70
2019-04-01T13:04:10.736Z,42.10
2019-04-01T13:06:13.568Z,40.30
2019-04-01T13:08:16.355Z,40.50
2019-04-01T13:10:20.221Z,41.30
2019-04-01T13:12:23.151Z,40.10
2019-04-01T13:14:25.980Z,38.80
2019-04-01T13:16:28.771Z,40.10
2019-04-01T13:18:31.576Z,40.60
2019-04-01T13:20:38.026Z,40.40
2019-04-01T13:22:39.243Z,40.60
2019-04-01T13:24:42.332Z,40.90
2019-04-01T13:26:45.130Z,39.80
2019-04-01T13:28:47.927Z,39.10
2019-04-01T13:30:50.760Z,40.00
2019-04-01T13:32:53.563Z,38.90
2019-04-01T13:34:56.390Z,39.40
2019-04-01T13:36:59.289Z,38.70
2019-04-01T13:39:04.148Z,39.50
2019-04-01T13:41:06.673Z,40.20
2019-04-01T13:43:09.460Z,39.40
2019-04-01T13:45:12.327Z,41.10
2019-04-01T13:47:15.251Z,39.30
2019-04-01T13:49:18.055Z,37.00
2019-04-01T13:51:20.937Z,37.70
2019-04-01T13:53:23.742Z,37.70
2019-04-01T13:55:26.595Z,36.90
2019-04-01T13:57:29.424Z,37.40
2019-04-01T13:59:32.213Z,36.80
2019-04-01T14:01:35.026Z,36.70
2019-04-01T14:03:37.844Z,36.80
2019-04-01T14:05:40.682Z,36.30
2019-04-01T14:07:43.492Z,35.70
2019-04-01T14:09:46.373Z,36.60
2019-04-01T14:11:49.256Z,35.70
2019-04-01T14:13:52.049Z,35.60
2019-04-01T14:15:54.864Z,37.30
2019-04-01T14:17:57.695Z,35.80
2019-04-01T14:20:00.522Z,37.20
2019-04-01T14:22:03.317Z,35.50
2019-04-01T14:24:06.127Z,35.40
2019-04-01T14:26:08.955Z,35.10
2019-04-01T14:28:11.794Z,36.00
2019-04-01T14:30:14.667Z,34.90
2019-04-01T14:32:18.275Z,34.80
2019-04-01T14:34:23.161Z,34.70
2019-04-01T14:36:25.854Z,34.80
2019-04-01T14:38:28.651Z,35.00
2019-04-01T14:40:32.738Z,34.70
2019-04-01T14:42:37.241Z,34.60
2019-04-01T14:44:40.211Z,34.60
2019-04-01T14:46:43.054Z,34.50
2019-04-01T14:48:45.896Z,36.30
2019-04-01T14:50:48.796Z,36.00
2019-04-01T14:52:51.600Z,34.50
2019-04-01T14:54:55.150Z,34.80
2019-04-01T14:56:58.138Z,35.30
2019-04-01T14:59:00.932Z,35.80
2019-04-01T15:01:03.921Z,35.30
2019-04-01T15:03:06.706Z,35.30
2019-04-01T15:05:09.689Z,34.40
2019-04-01T15:07:14.373Z,33.70
2019-04-01T15:09:17.476Z,34.10
2019-04-01T15:11:20.506Z,34.50
2019-04-01T15:13:23.334Z,34.90
2019-04-01T15:15:26.158Z,33.60
2019-04-01T15:17:28.967Z,33.90
2019-04-01T15:19:31.782Z,34.40
2019-04-01T15:21:34.739Z,33.90
2019-04-01T15:23:37.538Z,33.70
2019-04-01T15:25:40.435Z,34.10
2019-04-01T15:27:43.285Z,34.00
2019-04-01T15:29:46.076Z,34.10
2019-04-01T15:31:48.987Z,33.20
2019-04-01T15:33:51.782Z,32.40
2019-04-01T15:35:54.632Z,32.40
2019-04-01T15:37:57.494Z,32.10
2019-04-01T15:40:00.294Z,32.00
2019-04-01T15:42:03.175Z,33.20
2019-04-01T15:44:06.009Z,33.00
2019-04-01T15:46:08.909Z,32.20
2019-04-01T15:48:11.682Z,32.30
2019-04-01T15:50:27.880Z,32.40
2019-04-01T15:52:19.016Z,31.60
2019-04-01T15:54:21.842Z,32.40
2019-04-01T15:56:24.639Z,32.20
2019-04-01T15:58:27.447Z,32.50
2019-04-01T16:00:31.991Z,32.20
2019-04-01T16:02:35.058Z,33.10
2019-04-01T16:04:37.861Z,33.40
2019-04-01T16:06:40.719Z,32.80
2019-04-01T16:08:43.539Z,34.20
2019-04-01T16:10:46.321Z,34.20
2019-04-01T16:12:49.156Z,34.60
2019-04-01T16:14:51.964Z,35.10
2019-04-01T16:16:54.828Z,35.90
2019-04-01T16:18:57.682Z,35.90
2019-04-01T16:21:00.514Z,36.50
2019-04-01T16:23:03.319Z,36.80
2019-04-01T16:25:07.126Z,36.20
2019-04-01T16:27:09.925Z,37.20
2019-04-01T16:29:12.802Z,37.40
2019-04-01T16:31:15.639Z,37.60
2019-04-01T16:33:18.474Z,37.80
2019-04-01T16:35:21.279Z,38.90
2019-04-01T16:37:24.152Z,39.80
2019-04-01T16:42:12.002Z,40.20
2019-04-01T16:44:15.149Z,41.40
2019-04-01T16:46:18.367Z,41.40
2019-04-01T16:48:21.366Z,41.30
2019-04-01T16:50:24.238Z,41.20
2019-04-01T16:52:27.069Z,41.40
2019-04-01T16:54:29.918Z,41.20
2019-04-01T16:56:32.754Z,42.70
2019-04-01T16:58:35.548Z,42.50
2019-04-01T17:00:38.459Z,42.90
2019-04-01T17:02:41.366Z,43.10
2019-04-01T17:04:46.086Z,43.40
2019-04-01T17:06:48.622Z,43.20
2019-04-01T17:08:51.564Z,44.20
2019-04-01T17:10:54.399Z,44.60
2019-04-01T17:12:57.188Z,45.60
2019-04-01T17:15:03.352Z,45.60
2019-04-01T17:17:04.684Z,46.20
2019-04-01T17:19:07.483Z,46.00
2019-04-01T17:21:10.334Z,47.20
2019-04-01T17:23:13.118Z,47.00
2019-04-01T17:25:15.921Z,47.30
2019-04-01T17:27:18.799Z,48.10
2019-04-01T17:29:21.639Z,47.80
2019-04-01T17:31:24.505Z,49.20
2019-04-01T17:33:27.284Z,49.00
2019-04-01T17:35:30.294Z,49.00
2019-04-01T17:37:33.085Z,49.00
2019-04-01T17:39:35.890Z,49.00
2019-04-01T17:41:40.267Z,49.60
2019-04-01T17:43:43.146Z,49.60
2019-04-01T17:45:46.028Z,50.20
2019-04-01T17:47:48.832Z,50.10
2019-04-01T17:49:51.706Z,50.40
2019-04-01T17:51:56.310Z,50.00
2019-04-01T17:54:01.021Z,51.00
2019-04-01T17:56:03.649Z,51.30
2019-04-01T17:58:06.516Z,51.50
2019-04-01T18:00:17.962Z,50.90
2019-04-01T18:02:25.382Z,51.80
2019-04-01T18:04:28.242Z,52.20
2019-04-01T18:06:31.078Z,52.50
2019-04-01T18:08:34.243Z,53.00
2019-04-01T18:10:37.273Z,53.10
2019-04-01T18:12:40.073Z,53.00
2019-04-01T18:14:42.893Z,54.10
2019-04-01T18:16:45.678Z,54.20
2019-04-01T18:18:48.513Z,53.90
2019-04-01T18:20:51.386Z,54.30
2019-04-01T18:22:54.204Z,54.60
2019-04-01T18:24:57.477Z,54.80
2019-04-01T18:27:00.270Z,54.90
2019-04-01T18:29:03.091Z,55.00
2019-04-01T18:31:05.914Z,55.20
2019-04-01T18:33:08.741Z,55.50
2019-04-01T18:35:11.641Z,56.40
2019-04-01T18:37:14.506Z,55.80
2019-04-01T18:39:17.411Z,56.60
2019-04-01T18:41:20.214Z,57.20
2019-04-01T18:43:23.001Z,56.60
2019-04-01T18:45:25.932Z,56.30
2019-04-01T18:47:28.723Z,56.80
2019-04-01T18:49:31.707Z,57.40
2019-04-01T18:51:36.567Z,57.30
2019-04-01T18:53:38.998Z,57.80
2019-04-01T18:55:41.824Z,57.50
2019-04-01T18:57:44.615Z,58.50
2019-04-01T18:59:47.421Z,58.50
2019-04-01T19:01:51.421Z,59.40
2019-04-01T19:03:54.434Z,59.20
2019-04-01T19:05:57.250Z,57.90
2019-04-01T19:08:00.056Z,58.90
2019-04-01T19:10:06.369Z,59.50
2019-04-01T19:12:07.700Z,59.70
2019-04-01T19:14:11.177Z,59.00
2019-04-01T19:16:16.570Z,59.40
2019-04-01T19:18:18.988Z,59.60
2019-04-01T19:20:21.864Z,59.70
2019-04-01T19:22:24.661Z,60.60
2019-04-01T19:24:28.378Z,60.40
2019-04-01T19:26:31.535Z,61.50
2019-04-01T19:28:34.366Z,60.70
2019-04-01T19:30:37.149Z,61.90
2019-04-01T19:32:40.046Z,60.90
2019-04-01T19:34:42.864Z,61.80
2019-04-01T19:36:45.747Z,62.20
2019-04-01T19:38:48.519Z,62.30
2019-04-01T19:40:52.120Z,61.60
2019-04-01T19:42:55.002Z,61.80
2019-04-01T19:44:57.845Z,62.70
2019-04-01T19:47:00.714Z,63.80
2019-04-01T19:49:05.248Z,63.20
2019-04-01T19:51:08.267Z,63.50
2019-04-01T19:53:11.105Z,63.70
2019-04-01T19:55:14.136Z,63.90
2019-04-01T19:57:16.924Z,64.80
2019-04-01T19:59:19.792Z,64.50
2019-04-01T20:01:24.828Z,64.70
2019-04-01T20:03:27.193Z,65.00
2019-04-01T20:05:30.143Z,64.70
2019-04-01T20:07:32.985Z,65.30
2019-04-01T20:09:35.794Z,65.10
2019-04-01T20:11:38.594Z,65.60
2019-04-01T20:13:42.849Z,66.40
2019-04-01T20:15:45.943Z,66.00
2019-04-01T20:17:48.743Z,67.20
2019-04-01T20:19:51.651Z,67.10
2019-04-01T20:21:54.554Z,66.70
2019-04-01T20:23:57.454Z,67.40
2019-04-01T20:26:00.240Z,67.50
2019-04-01T20:28:04.734Z,67.90
2019-04-01T20:30:09.358Z,68.00
2019-04-01T20:32:17.649Z,67.80
2019-04-01T20:34:19.895Z,68.10
2019-04-01T20:36:28.366Z,69.00
2019-04-01T20:38:27.240Z,69.60
2019-04-01T20:40:32.002Z,70.00
2019-04-01T20:42:34.805Z,70.10
2019-04-01T20:44:37.591Z,70.90
2019-04-01T20:46:40.465Z,70.70
2019-04-01T20:48:43.259Z,70.70
2019-04-01T20:50:46.132Z,71.30
2019-04-01T20:52:50.079Z,72.20
2019-04-01T20:54:53.215Z,71.80
2019-04-01T20:56:56.037Z,72.30
2019-04-01T20:58:58.829Z,71.50
2019-04-01T21:01:01.627Z,72.20
2019-04-01T21:03:04.614Z,72.90
2019-04-01T21:05:08.029Z,73.80
2019-04-01T21:07:10.913Z,73.30
2019-04-01T21:09:13.736Z,73.00
2019-04-01T21:11:16.774Z,73.30
2019-04-01T21:13:19.696Z,73.70
2019-04-01T21:15:22.591Z,73.60
2019-04-01T21:17:25.639Z,73.90
2019-04-01T21:19:28.537Z,74.30
2019-04-01T21:21:31.456Z,74.50
2019-04-01T21:23:35.915Z,74.70
2019-04-01T21:25:38.918Z,75.10
2019-04-01T21:27:41.872Z,74.70
2019-04-01T21:29:44.743Z,75.00
2019-04-01T21:31:48.118Z,75.40
2019-04-01T21:33:51.303Z,75.30
2019-04-01T21:35:54.303Z,75.40
2019-04-01T21:37:57.207Z,75.10
2019-04-01T21:40:00.075Z,75.70
2019-04-01T21:42:02.956Z,75.90
2019-04-01T21:44:05.776Z,76.00
2019-04-01T21:46:08.615Z,76.00
2019-04-01T21:48:11.489Z,76.10
2019-04-01T21:50:14.396Z,76.10
2019-04-01T21:52:17.299Z,76.30
2019-04-01T21:54:20.205Z,76.50
2019-04-01T21:56:23.470Z,76.30
2019-04-01T21:58:26.385Z,76.90
2019-04-01T22:00:46.253Z,76.50
2019-04-01T22:02:49.346Z,77.40
2019-04-01T22:04:52.269Z,77.00
2019-04-01T22:06:55.129Z,78.00
2019-04-01T22:08:58.091Z,78.20
2019-04-01T22:11:01.197Z,78.30
2019-04-01T22:13:04.394Z,78.00
2019-04-01T22:15:07.475Z,78.30
2019-04-01T22:17:10.298Z,78.70
2019-04-01T22:19:13.095Z,78.60
2019-04-01T22:21:15.927Z,78.10
2019-04-01T22:23:18.890Z,78.90
2019-04-01T22:25:21.840Z,78.60
2019-04-01T22:27:24.915Z,79.80
2019-04-01T22:29:28.014Z,79.00
2019-04-01T22:31:30.870Z,78.90
2019-04-01T22:33:33.807Z,79.00
2019-04-01T22:35:38.747Z,79.00
2019-04-01T22:37:41.413Z,78.60
2019-04-01T22:39:45.483Z,79.20
2019-04-01T22:41:48.553Z,80.30
2019-04-01T22:43:51.657Z,79.60
2019-04-01T22:45:54.491Z,80.00
2019-04-01T22:47:57.370Z,79.50
2019-04-01T22:50:00.175Z,80.00
2019-04-01T22:52:02.972Z,80.00
2019-04-01T22:54:05.795Z,79.60
2019-04-01T22:56:08.580Z,79.70
2019-04-01T22:58:11.378Z,79.90
2019-04-01T23:00:14.445Z,79.60
2019-04-01T23:02:17.280Z,79.90
2019-04-01T23:04:20.105Z,80.20
2019-04-01T23:06:22.977Z,79.80
2019-04-01T23:08:25.827Z,80.00
2019-04-01T23:10:28.805Z,80.00
2019-04-01T23:12:31.631Z,79.80
2019-04-01T23:14:34.456Z,80.40
2019-04-01T23:16:37.268Z,81.00
2019-04-01T23:18:40.078Z,80.10
2019-04-01T23:20:42.920Z,78.70
2019-04-01T23:22:45.785Z,78.90
2019-04-01T23:24:48.680Z,79.20
2019-04-01T23:26:51.517Z,79.00
2019-04-01T23:28:54.367Z,79.50
2019-04-01T23:30:57.196Z,79.00
2019-04-01T23:33:00.157Z,79.30
2019-04-01T23:35:03.214Z,78.90
2019-04-01T23:37:05.982Z,78.90
2019-04-01T23:39:08.795Z,79.60
2019-04-01T23:41:11.709Z,79.00
2019-04-01T23:43:14.501Z,79.00
2019-04-01T23:45:17.290Z,78.00
2019-04-01T23:47:20.222Z,78.90
2019-04-01T23:49:23.082Z,78.90
2019-04-01T23:51:25.919Z,79.20
2019-04-01T23:53:28.739Z,78.60
2019-04-01T23:55:31.548Z,78.00
2019-04-01T23:57:34.397Z,78.70
2019-04-01T23:59:37.191Z,78.70
